createdAt,value
2019-01-17T17:29:50.229Z,82.80
2019-01-17T17:30:50.174Z,83.25
2019-01-17T17:31:50.162Z,83.46
2019-01-17T17:32:50.155Z,83.67
2019-01-17T17:33:50.143Z,82.11
2019-01-17T17:34:50.127Z,82.63
2019-01-17T17:35:50.133Z,82.53
2019-01-17T17:36:50.115Z,82.63
2019-01-17T17:37:50.101Z,81.70
2019-01-17T17:38:50.116Z,82.11
2019-01-17T17:39:50.117Z,80.87
2019-01-17T17:40:50.075Z,81.90
2019-01-17T17:41:50.111Z,80.76
2019-01-17T17:42:50.072Z,81.59
2019-01-17T17:43:50.050Z,82.11
2019-01-17T17:44:50.089Z,82.63
2019-01-17T17:45:50.025Z,80.66
2019-01-17T17:46:50.069Z,80.93
2019-01-17T17:47:50.035Z,80.62
2019-01-17T17:48:49.986Z,80.10
2019-01-17T17:49:49.980Z,80.52
2019-01-17T17:50:49.975Z,79.38
2019-01-17T17:51:50.011Z,79.27
2019-01-17T17:52:49.964Z,80.52
2019-01-17T17:53:49.948Z,80.73
2019-01-17T17:54:49.923Z,80.00
2019-01-17T17:55:49.948Z,80.21
2019-01-17T17:56:49.904Z,80.10
2019-01-17T17:57:50.707Z,79.90
2019-01-17T17:58:49.881Z,80.93
2019-01-17T17:59:49.910Z,80.41
2019-01-17T18:00:57.401Z,79.90
2019-01-17T18:01:49.852Z,80.00
2019-01-17T18:02:49.836Z,79.58
2019-01-17T18:03:49.830Z,79.17
2019-01-17T18:04:49.839Z,77.92
2019-01-17T18:05:49.817Z,79.48
2019-01-17T18:06:49.792Z,79.06
2019-01-17T18:07:49.793Z,79.48
2019-01-17T18:08:49.775Z,80.10
2019-01-17T18:09:49.769Z,79.90
2019-01-17T18:10:49.754Z,78.86
2019-01-17T18:11:49.766Z,79.38
2019-01-17T18:12:49.728Z,79.69
2019-01-17T18:13:49.728Z,79.38
2019-01-17T18:14:49.757Z,78.65
2019-01-17T18:15:49.700Z,79.69
2019-01-17T18:16:49.699Z,79.38
2019-01-17T18:17:49.696Z,79.48
2019-01-17T18:18:49.670Z,79.27
2019-01-17T18:19:49.661Z,79.58
2019-01-17T18:20:49.648Z,80.62
2019-01-17T18:21:49.635Z,79.93
2019-01-17T18:22:49.632Z,78.16
2019-01-17T18:23:49.638Z,78.44
2019-01-17T18:24:49.619Z,77.09
2019-01-17T18:25:49.598Z,78.65
2019-01-17T18:26:49.584Z,79.27
2019-01-17T18:27:49.578Z,78.55
2019-01-17T18:28:49.564Z,78.44
2019-01-17T18:29:49.575Z,79.38
2019-01-17T18:30:49.564Z,78.27
2019-01-17T18:31:49.535Z,79.61
2019-01-17T18:32:49.529Z,77.95
2019-01-17T18:33:49.509Z,78.06
2019-01-17T18:34:49.509Z,78.89
2019-01-17T18:35:49.515Z,78.37
2019-01-17T18:36:49.481Z,77.85
2019-01-17T18:37:49.477Z,77.09
2019-01-17T18:38:49.461Z,77.51
2019-01-17T18:39:49.453Z,77.44
2019-01-17T18:40:49.442Z,77.33
2019-01-17T18:41:49.439Z,76.40
2019-01-17T18:42:49.421Z,76.71
2019-01-17T18:43:49.410Z,75.78
2019-01-17T18:44:49.402Z,75.67
2019-01-17T18:45:49.384Z,77.23
2019-01-17T18:46:49.378Z,77.02
2019-01-17T18:47:49.385Z,77.23
2019-01-17T18:48:49.369Z,75.88
2019-01-17T18:49:49.351Z,77.44
2019-01-17T18:50:49.334Z,76.61
2019-01-17T18:51:49.326Z,77.33
2019-01-17T18:52:49.318Z,75.78
2019-01-17T18:53:49.319Z,77.75
2019-01-17T18:54:49.296Z,76.37
2019-01-17T18:55:49.290Z,76.92
2019-01-17T18:56:49.275Z,77.20
2019-01-17T18:57:49.260Z,76.85
2019-01-17T18:58:49.265Z,75.95
2019-01-17T18:59:49.261Z,76.68
2019-01-17T19:00:49.235Z,76.37
2019-01-17T19:01:49.221Z,75.29
2019-01-17T19:02:49.213Z,76.85
2019-01-17T19:03:49.193Z,77.58
2019-01-17T19:04:49.193Z,76.85
2019-01-17T19:05:49.197Z,76.26
2019-01-17T19:06:49.167Z,74.50
2019-01-17T19:07:49.153Z,74.81
2019-01-17T19:08:49.139Z,75.12
2019-01-17T19:09:49.132Z,75.43
2019-01-17T19:10:49.134Z,75.43
2019-01-17T19:11:49.146Z,75.74
2019-01-17T19:12:49.103Z,75.95
2019-01-17T19:13:49.094Z,76.16
2019-01-17T19:14:49.078Z,76.06
2019-01-17T19:15:49.068Z,76.57
2019-01-17T19:16:49.069Z,75.43
2019-01-17T19:17:49.072Z,75.95
2019-01-17T19:18:49.048Z,75.33
2019-01-17T19:19:49.026Z,75.54
2019-01-17T19:20:49.371Z,74.50
2019-01-17T19:21:49.015Z,75.67
2019-01-17T19:22:48.998Z,75.98
2019-01-17T19:23:49.000Z,74.91
2019-01-17T19:24:48.991Z,75.26
2019-01-17T19:25:49.014Z,74.91
2019-01-17T19:26:48.958Z,73.88
2019-01-17T19:27:48.945Z,74.81
2019-01-17T19:28:48.937Z,75.23
2019-01-17T19:29:48.946Z,74.60
2019-01-17T19:30:48.936Z,74.81
2019-01-17T19:31:48.945Z,74.40
2019-01-17T19:32:48.888Z,74.50
2019-01-17T19:33:48.882Z,74.60
2019-01-17T19:34:48.885Z,74.84
2019-01-17T19:35:48.897Z,75.15
2019-01-17T19:36:48.843Z,73.49
2019-01-17T19:37:48.844Z,75.15
2019-01-17T19:38:48.850Z,74.22
2019-01-17T19:39:48.824Z,74.95
2019-01-17T19:40:48.837Z,74.01
2019-01-17T19:41:48.856Z,74.53
2019-01-17T19:42:48.807Z,74.84
2019-01-17T19:43:48.953Z,74.01
2019-01-17T19:44:48.788Z,75.78
2019-01-17T19:45:48.759Z,75.78
2019-01-17T19:46:49.241Z,74.95
2019-01-17T19:47:49.058Z,73.91
2019-01-17T19:48:48.753Z,74.95
2019-01-17T19:49:48.737Z,74.74
2019-01-17T19:50:48.871Z,75.15
2019-01-17T19:51:48.686Z,73.91
2019-01-17T19:52:48.714Z,74.53
2019-01-17T19:53:48.708Z,74.95
2019-01-17T19:54:48.657Z,74.77
2019-01-17T19:55:48.644Z,74.88
2019-01-17T19:56:48.721Z,75.15
2019-01-17T19:57:48.631Z,74.43
2019-01-17T19:58:48.666Z,74.22
2019-01-17T19:59:48.647Z,74.63
2019-01-17T20:00:48.612Z,74.46
2019-01-17T20:01:48.641Z,74.98
2019-01-17T20:02:48.577Z,74.88
2019-01-17T20:03:48.589Z,75.40
2019-01-17T20:04:48.612Z,74.95
2019-01-17T20:05:48.686Z,75.29
2019-01-17T20:06:48.565Z,74.77
2019-01-17T20:07:49.095Z,75.19
2019-01-17T20:08:48.513Z,75.09
2019-01-17T20:09:48.509Z,74.88
2019-01-17T20:10:48.493Z,74.67
2019-01-17T20:11:48.499Z,74.77
2019-01-17T20:12:48.479Z,74.46
2019-01-17T20:13:48.477Z,75.92
2019-01-17T20:14:48.461Z,74.98
2019-01-17T20:15:48.433Z,75.85
2019-01-17T20:16:48.561Z,75.19
2019-01-17T20:17:48.487Z,75.40
2019-01-17T20:18:48.445Z,75.29
2019-01-17T20:19:48.400Z,74.88
2019-01-17T20:20:48.400Z,74.67
2019-01-17T20:21:48.378Z,75.54
2019-01-17T20:22:48.364Z,75.60
2019-01-17T20:23:48.372Z,74.91
2019-01-17T20:24:48.354Z,74.67
2019-01-17T20:25:48.799Z,74.98
2019-01-17T20:26:48.342Z,74.39
2019-01-17T20:27:48.314Z,74.91
2019-01-17T20:28:48.303Z,75.12
2019-01-17T20:29:48.309Z,74.39
2019-01-17T20:30:48.290Z,74.91
2019-01-17T20:31:48.273Z,76.47
2019-01-17T20:32:48.258Z,75.12
2019-01-17T20:33:48.254Z,75.12
2019-01-17T20:34:48.248Z,76.37
2019-01-17T20:35:48.251Z,75.12
2019-01-17T20:36:48.223Z,74.08
2019-01-17T20:37:48.210Z,75.12
2019-01-17T20:38:48.200Z,76.26
2019-01-17T20:39:48.193Z,76.06
2019-01-17T20:40:48.172Z,75.95
2019-01-17T20:41:48.185Z,76.37
2019-01-17T20:42:48.163Z,75.54
2019-01-17T20:43:48.147Z,75.64
2019-01-17T20:44:48.131Z,75.95
2019-01-17T20:45:48.124Z,75.85
2019-01-17T20:46:48.116Z,73.87
2019-01-17T20:47:48.134Z,75.12
2019-01-17T20:48:48.102Z,75.64
2019-01-17T20:49:48.087Z,75.32
2019-01-17T20:50:48.077Z,75.32
2019-01-17T20:51:48.060Z,75.01
2019-01-17T20:52:48.050Z,75.32
2019-01-17T20:53:48.060Z,73.66
2019-01-17T20:54:48.031Z,74.60
2019-01-17T20:55:48.018Z,74.49
2019-01-17T20:56:48.008Z,75.12
2019-01-17T20:57:47.999Z,74.70
2019-01-17T20:58:47.993Z,74.80
2019-01-17T20:59:47.988Z,75.12
2019-01-17T21:00:47.964Z,75.12
2019-01-17T21:01:47.949Z,75.12
2019-01-17T21:02:47.947Z,74.80
2019-01-17T21:03:47.932Z,74.60
2019-01-17T21:04:47.926Z,75.74
2019-01-17T21:05:47.932Z,75.12
2019-01-17T21:06:47.919Z,75.74
2019-01-17T21:07:47.894Z,75.78
2019-01-17T21:08:47.878Z,75.01
2019-01-17T21:09:47.875Z,75.78
2019-01-17T21:10:47.865Z,77.03
2019-01-17T21:11:47.887Z,76.51
2019-01-17T21:12:47.836Z,77.03
2019-01-17T21:13:47.826Z,77.58
2019-01-17T21:14:47.814Z,77.48
2019-01-17T21:15:47.805Z,77.93
2019-01-17T21:16:47.804Z,79.07
2019-01-17T21:17:47.802Z,79.49
2019-01-17T21:18:47.817Z,79.52
2019-01-17T21:19:47.764Z,79.49
2019-01-17T21:20:47.980Z,79.49
2019-01-17T21:21:47.741Z,79.59
2019-01-17T21:22:47.735Z,79.80
2019-01-17T21:23:47.734Z,79.80
2019-01-17T21:24:47.705Z,80.43
2019-01-17T21:25:47.703Z,80.84
2019-01-17T21:26:47.705Z,79.80
2019-01-17T21:27:47.678Z,79.49
2019-01-17T21:28:49.130Z,79.49
2019-01-17T21:29:47.673Z,79.63
2019-01-17T21:30:47.644Z,79.83
2019-01-17T21:31:47.628Z,80.32
2019-01-17T21:32:47.702Z,81.40
2019-01-17T21:33:47.606Z,81.57
2019-01-17T21:34:47.612Z,80.94
2019-01-17T21:35:47.608Z,80.63
2019-01-17T21:36:47.577Z,81.05
2019-01-17T21:37:47.584Z,80.98
2019-01-17T21:38:47.565Z,80.84
2019-01-17T21:39:47.540Z,80.88
2019-01-17T21:40:47.534Z,80.77
2019-01-17T21:41:47.546Z,81.09
2019-01-17T21:42:47.515Z,80.77
2019-01-17T21:43:47.508Z,80.98
2019-01-17T21:44:47.492Z,80.26
2019-01-17T21:45:47.494Z,80.46
2019-01-17T21:46:47.470Z,80.98
2019-01-17T21:47:47.479Z,81.15
2019-01-17T21:48:47.450Z,81.71
2019-01-17T21:49:47.450Z,81.15
2019-01-17T21:50:47.433Z,80.94
2019-01-17T21:51:47.418Z,80.94
2019-01-17T21:52:47.410Z,80.01
2019-01-17T21:53:47.416Z,80.01
2019-01-17T21:54:47.387Z,80.11
2019-01-17T21:55:47.373Z,80.11
2019-01-17T21:56:47.367Z,79.38
2019-01-17T21:57:47.355Z,79.69
2019-01-17T21:58:47.343Z,80.63
2019-01-17T21:59:47.348Z,80.63
2019-01-17T22:00:47.323Z,79.38
2019-01-17T22:01:47.316Z,81.15
2019-01-17T22:02:47.317Z,79.38
2019-01-17T22:03:47.291Z,79.49
2019-01-17T22:04:47.278Z,80.29
2019-01-17T22:05:47.295Z,79.35
2019-01-17T22:06:47.259Z,79.28
2019-01-17T22:07:47.246Z,80.84
2019-01-17T22:08:47.236Z,80.94
2019-01-17T22:09:47.234Z,80.32
2019-01-17T22:10:47.218Z,79.49
2019-01-17T22:11:47.224Z,79.76
2019-01-17T22:12:47.203Z,79.55
2019-01-17T22:13:47.179Z,78.55
2019-01-17T22:14:47.178Z,79.69
2019-01-17T22:15:47.162Z,78.76
2019-01-17T22:16:47.150Z,78.55
2019-01-17T22:17:47.183Z,78.55
2019-01-17T22:18:47.137Z,79.24
2019-01-17T22:19:47.201Z,79.07
2019-01-17T22:20:47.111Z,77.79
2019-01-17T22:21:47.097Z,76.23
2019-01-17T22:22:47.081Z,77.16
2019-01-17T22:23:47.107Z,77.06
2019-01-17T22:24:47.065Z,77.13
2019-01-17T22:25:47.056Z,77.65
2019-01-17T22:26:47.046Z,79.52
2019-01-17T22:27:47.030Z,81.49
2019-01-17T22:28:47.024Z,82.46
2019-01-17T22:29:47.033Z,82.51
2019-01-17T22:30:47.003Z,83.27
2019-01-17T22:31:46.995Z,83.62
2019-01-17T22:32:46.982Z,84.52
2019-01-17T22:33:46.972Z,84.77
2019-01-17T22:34:46.961Z,84.98
2019-01-17T22:35:46.965Z,85.43
2019-01-17T22:36:46.936Z,85.02
2019-01-17T22:37:46.923Z,86.27
2019-01-17T22:38:46.916Z,85.64
2019-01-17T22:39:46.953Z,86.16
2019-01-17T22:40:46.909Z,86.37
2019-01-17T22:41:46.906Z,86.61
2019-01-17T22:42:46.881Z,87.41
2019-01-17T22:43:46.865Z,87.14
2019-01-17T22:44:46.854Z,87.45
2019-01-17T22:45:46.839Z,88.39
2019-01-17T22:46:46.830Z,88.22
2019-01-17T22:47:46.842Z,88.18
2019-01-17T22:48:46.811Z,88.49
2019-01-17T22:49:46.798Z,88.29
2019-01-17T22:50:46.785Z,89.43
2019-01-17T22:51:46.779Z,89.54
2019-01-17T22:52:46.774Z,89.18
2019-01-17T22:53:46.776Z,88.35
2019-01-17T22:54:46.749Z,88.91
2019-01-17T22:55:46.737Z,89.18
2019-01-17T22:56:46.727Z,89.29
2019-01-17T22:57:46.713Z,88.98
2019-01-17T22:58:46.705Z,89.08
2019-01-17T22:59:46.715Z,88.66
2019-01-17T23:00:46.686Z,87.93
2019-01-17T23:01:46.676Z,88.66
2019-01-17T23:02:46.659Z,88.66
2019-01-17T23:03:46.650Z,88.76
2019-01-17T23:04:46.637Z,89.08
2019-01-17T23:05:46.644Z,88.45
2019-01-17T23:06:46.612Z,88.24
2019-01-17T23:07:46.608Z,88.20
2019-01-17T23:08:46.592Z,87.99
2019-01-17T23:09:46.581Z,87.99
2019-01-17T23:10:46.576Z,88.04
2019-01-17T23:11:46.586Z,88.10
2019-01-17T23:12:46.560Z,87.41
2019-01-17T23:13:46.545Z,88.24
2019-01-17T23:14:46.530Z,87.48
2019-01-17T23:15:46.521Z,86.65
2019-01-17T23:16:46.520Z,86.75
2019-01-17T23:17:46.524Z,86.33
2019-01-17T23:18:46.483Z,86.02
2019-01-17T23:19:46.477Z,86.58
2019-01-17T23:20:46.474Z,86.75
2019-01-17T23:21:46.460Z,86.96
2019-01-17T23:22:46.447Z,86.02
2019-01-17T23:23:46.450Z,86.54
2019-01-17T23:24:46.430Z,86.37
2019-01-17T23:25:46.415Z,85.50
2019-01-17T23:26:46.397Z,84.87
2019-01-17T23:27:46.390Z,86.47
2019-01-17T23:28:46.390Z,86.43
2019-01-17T23:29:46.383Z,87.27
2019-01-17T23:30:46.364Z,85.50
2019-01-17T23:31:46.367Z,86.33
2019-01-17T23:32:46.341Z,87.37
2019-01-17T23:33:46.325Z,87.52
2019-01-17T23:34:46.319Z,87.41
2019-01-17T23:35:46.338Z,86.79
2019-01-17T23:36:48.842Z,86.79
2019-01-17T23:37:46.299Z,87.20
2019-01-17T23:38:46.284Z,86.89
2019-01-17T23:39:46.268Z,86.27
2019-01-17T23:40:46.255Z,85.64
2019-01-17T23:41:46.261Z,86.68
2019-01-17T23:42:46.232Z,87.10
2019-01-17T23:43:46.223Z,86.27
2019-01-17T23:44:46.213Z,85.22
2019-01-17T23:45:46.203Z,83.91
2019-01-17T23:46:46.188Z,84.84
2019-01-17T23:47:46.213Z,85.33
2019-01-17T23:48:46.168Z,83.76
2019-01-17T23:49:46.168Z,83.56
2019-01-17T23:50:46.155Z,83.66
2019-01-17T23:51:46.146Z,84.60
2019-01-17T23:52:46.126Z,83.59
2019-01-17T23:53:46.142Z,84.18
2019-01-17T23:54:46.101Z,84.60
2019-01-17T23:55:46.097Z,81.68
2019-01-17T23:56:46.095Z,83.59
2019-01-17T23:57:46.072Z,84.81
2019-01-17T23:58:46.060Z,84.22
2019-01-17T23:59:46.075Z,83.56
